createdAt,value
2022-10-07T00:00:17.454Z,0.00
2022-10-07T00:01:17.559Z,0.00
2022-10-07T00:02:17.492Z,0.00
2022-10-07T00:03:17.422Z,0.00
2022-10-07T00:04:17.412Z,0.00
2022-10-07T00:05:17.401Z,0.00
2022-10-07T00:06:17.392Z,0.00
2022-10-07T00:07:17.372Z,0.00
2022-10-07T00:08:17.383Z,0.00
2022-10-07T00:09:17.374Z,0.00
2022-10-07T00:10:17.343Z,0.00
2022-10-07T00:11:17.334Z,0.00
2022-10-07T00:12:17.354Z,0.00
2022-10-07T00:13:17.309Z,0.00
2022-10-07T00:14:17.322Z,0.00
2022-10-07T00:15:17.293Z,0.00
2022-10-07T00:16:17.328Z,0.00
2022-10-07T00:17:17.262Z,0.00
2022-10-07T00:18:17.284Z,0.00
2022-10-07T00:19:17.262Z,0.00
2022-10-07T00:20:17.232Z,0.00
2022-10-07T00:21:17.221Z,0.00
2022-10-07T00:22:17.222Z,0.00
2022-10-07T00:23:17.194Z,0.00
2022-10-07T00:24:17.183Z,0.00
2022-10-07T00:25:17.463Z,0.00
2022-10-07T00:26:17.164Z,0.00
2022-10-07T00:27:17.153Z,0.00
2022-10-07T00:28:17.154Z,0.00
2022-10-07T00:29:17.153Z,0.00
2022-10-07T00:30:17.116Z,0.00
2022-10-07T00:31:17.215Z,0.00
2022-10-07T00:32:17.114Z,0.00
2022-10-07T00:33:17.093Z,0.00
2022-10-07T00:34:17.073Z,0.00
2022-10-07T00:35:17.086Z,0.00
2022-10-07T00:36:19.825Z,0.00
2022-10-07T00:37:17.046Z,0.00
2022-10-07T00:38:17.098Z,0.00
2022-10-07T00:39:17.027Z,0.00
2022-10-07T00:40:17.014Z,0.00
2022-10-07T00:41:17.037Z,0.00
2022-10-07T00:42:17.004Z,0.00
2022-10-07T00:43:16.983Z,0.00
2022-10-07T00:44:16.965Z,0.00
2022-10-07T00:45:16.979Z,0.00
2022-10-07T00:46:16.969Z,0.00
2022-10-07T00:47:16.935Z,0.00
2022-10-07T00:48:16.923Z,0.00
2022-10-07T00:49:16.936Z,0.00
2022-10-07T00:50:16.925Z,0.00
2022-10-07T00:51:16.886Z,0.00
2022-10-07T00:52:16.887Z,0.00
2022-10-07T00:53:16.867Z,0.00
2022-10-07T00:54:16.856Z,0.00
2022-10-07T00:55:16.866Z,0.00
2022-10-07T00:56:16.835Z,0.00
2022-10-07T00:57:16.828Z,0.00
2022-10-07T00:58:16.806Z,0.00
2022-10-07T00:59:16.807Z,0.00
2022-10-07T01:00:16.813Z,0.00
2022-10-07T01:01:16.860Z,0.00
2022-10-07T01:02:16.818Z,0.00
2022-10-07T01:03:16.766Z,0.00
2022-10-07T01:04:16.746Z,0.00
2022-10-07T01:05:16.738Z,0.00
2022-10-07T01:06:16.745Z,0.00
2022-10-07T01:07:16.713Z,0.00
2022-10-07T01:08:16.705Z,0.00
2022-10-07T01:09:16.688Z,0.00
2022-10-07T01:10:16.696Z,0.00
2022-10-07T01:11:16.666Z,0.00
2022-10-07T01:12:16.665Z,0.00
2022-10-07T01:13:16.647Z,0.00
2022-10-07T01:14:16.634Z,0.00
2022-10-07T01:15:16.645Z,0.00
2022-10-07T01:16:16.687Z,0.00
2022-10-07T01:17:16.604Z,0.00
2022-10-07T01:18:16.588Z,0.00
2022-10-07T01:19:16.578Z,0.00
2022-10-07T01:20:16.566Z,0.00
2022-10-07T01:21:16.588Z,0.00
2022-10-07T01:22:16.563Z,0.00
2022-10-07T01:23:16.543Z,0.00
2022-10-07T01:24:16.518Z,0.00
2022-10-07T01:25:16.516Z,0.00
2022-10-07T01:26:16.516Z,0.00
2022-10-07T01:27:16.487Z,0.00
2022-10-07T01:28:16.522Z,0.00
2022-10-07T01:29:16.467Z,0.00
2022-10-07T01:30:16.449Z,0.00
2022-10-07T01:31:16.526Z,0.00
2022-10-07T01:32:16.439Z,0.00
2022-10-07T01:33:16.427Z,0.00
2022-10-07T01:34:16.409Z,0.00
2022-10-07T01:35:16.399Z,0.00
2022-10-07T01:36:16.409Z,0.00
2022-10-07T01:37:16.387Z,0.00
2022-10-07T01:38:16.367Z,0.00
2022-10-07T01:39:16.369Z,0.00
2022-10-07T01:40:16.354Z,0.00
2022-10-07T01:41:16.362Z,0.00
2022-10-07T01:42:16.358Z,0.00
2022-10-07T01:43:16.310Z,0.00
2022-10-07T01:44:16.298Z,0.00
2022-10-07T01:45:16.289Z,0.00
2022-10-07T01:46:16.320Z,0.00
2022-10-07T01:47:16.269Z,0.00
2022-10-07T01:48:16.278Z,0.00
2022-10-07T01:49:16.249Z,0.00
2022-10-07T01:50:16.238Z,0.00
2022-10-07T01:51:16.230Z,0.00
2022-10-07T01:52:16.251Z,0.00
2022-10-07T01:53:16.207Z,0.00
2022-10-07T01:54:16.202Z,0.00
2022-10-07T01:55:16.181Z,0.00
2022-10-07T01:56:16.169Z,0.00
2022-10-07T01:57:16.167Z,0.00
2022-10-07T01:58:16.172Z,0.00
2022-10-07T01:59:16.142Z,0.00
2022-10-07T02:00:16.121Z,0.00
2022-10-07T02:01:16.143Z,0.00
2022-10-07T02:02:16.111Z,0.00
2022-10-07T02:03:16.151Z,0.00
2022-10-07T02:04:16.110Z,0.00
2022-10-07T02:05:16.075Z,0.00
2022-10-07T02:06:16.051Z,0.00
2022-10-07T02:07:16.054Z,0.00
2022-10-07T02:08:16.035Z,0.00
2022-10-07T02:09:16.049Z,0.00
2022-10-07T02:10:16.010Z,0.00
2022-10-07T02:11:16.011Z,0.00
2022-10-07T02:12:16.000Z,0.00
2022-10-07T02:13:16.000Z,0.00
2022-10-07T02:14:15.969Z,0.00
2022-10-07T02:15:15.956Z,0.00
2022-10-07T02:16:16.001Z,0.00
2022-10-07T02:17:15.952Z,0.00
2022-10-07T02:18:15.920Z,0.00
2022-10-07T02:19:15.943Z,0.00
2022-10-07T02:20:15.910Z,0.00
2022-10-07T02:21:15.891Z,0.00
2022-10-07T02:22:15.891Z,0.00
2022-10-07T02:23:15.890Z,0.00
2022-10-07T02:24:15.878Z,0.00
2022-10-07T02:25:15.850Z,0.00
2022-10-07T02:26:15.831Z,0.00
2022-10-07T02:27:15.822Z,0.00
2022-10-07T02:28:15.845Z,0.00
2022-10-07T02:29:15.823Z,0.00
2022-10-07T02:30:15.790Z,0.00
2022-10-07T02:31:15.812Z,0.00
2022-10-07T02:32:15.771Z,0.00
2022-10-07T02:33:15.771Z,0.00
2022-10-07T02:34:19.693Z,0.00
2022-10-07T02:35:15.732Z,0.00
2022-10-07T02:36:15.721Z,0.00
2022-10-07T02:37:15.723Z,0.00
2022-10-07T02:38:15.705Z,0.00
2022-10-07T02:39:15.713Z,0.00
2022-10-07T02:40:15.681Z,0.00
2022-10-07T02:41:15.663Z,0.00
2022-10-07T02:42:15.662Z,0.00
2022-10-07T02:43:15.661Z,0.00
2022-10-07T02:44:15.671Z,0.00
2022-10-07T02:45:15.636Z,0.00
2022-10-07T02:46:15.705Z,0.00
2022-10-07T02:47:15.602Z,0.00
2022-10-07T02:48:15.593Z,0.00
2022-10-07T02:49:15.601Z,0.00
2022-10-07T02:50:15.564Z,0.00
2022-10-07T02:51:20.052Z,0.00
2022-10-07T02:52:16.552Z,0.00
2022-10-07T02:53:15.533Z,0.00
2022-10-07T02:54:15.533Z,0.00
2022-10-07T02:55:15.540Z,0.00
2022-10-07T02:56:15.504Z,0.00
2022-10-07T02:57:15.505Z,0.00
2022-10-07T02:58:15.486Z,0.00
2022-10-07T02:59:15.483Z,0.00
2022-10-07T03:00:15.498Z,0.00
2022-10-07T03:01:15.537Z,0.00
2022-10-07T03:02:15.465Z,0.00
2022-10-07T03:03:15.472Z,0.00
2022-10-07T03:04:15.434Z,0.00
2022-10-07T03:05:15.403Z,0.00
2022-10-07T03:06:15.391Z,0.00
2022-10-07T03:07:15.379Z,0.00
2022-10-07T03:08:15.365Z,0.00
2022-10-07T03:09:15.404Z,0.00
2022-10-07T03:10:15.343Z,0.00
2022-10-07T03:11:15.342Z,0.00
2022-10-07T03:12:15.334Z,0.00
2022-10-07T03:13:15.313Z,0.00
2022-10-07T03:14:15.302Z,0.00
2022-10-07T03:15:15.314Z,0.00
2022-10-07T03:16:15.359Z,0.00
2022-10-07T03:17:15.283Z,0.00
2022-10-07T03:18:15.266Z,0.00
2022-10-07T03:19:15.270Z,0.00
2022-10-07T03:20:15.284Z,0.00
2022-10-07T03:21:15.243Z,0.00
2022-10-07T03:22:15.223Z,0.00
2022-10-07T03:23:15.200Z,0.00
2022-10-07T03:24:15.210Z,0.00
2022-10-07T03:25:15.175Z,0.00
2022-10-07T03:26:15.215Z,0.00
2022-10-07T03:27:15.158Z,0.00
2022-10-07T03:28:15.228Z,0.00
2022-10-07T03:29:15.135Z,0.00
2022-10-07T03:30:15.138Z,0.00
2022-10-07T03:31:15.158Z,0.00
2022-10-07T03:32:15.173Z,0.00
2022-10-07T03:33:15.093Z,0.00
2022-10-07T03:34:15.081Z,0.00
2022-10-07T03:35:15.081Z,0.00
2022-10-07T03:36:15.083Z,0.00
2022-10-07T03:37:15.072Z,0.00
2022-10-07T03:38:15.036Z,0.00
2022-10-07T03:39:15.024Z,0.00
2022-10-07T03:40:15.018Z,0.00
2022-10-07T03:41:14.998Z,0.00
2022-10-07T03:42:15.164Z,0.00
2022-10-07T03:43:14.976Z,0.00
2022-10-07T03:44:14.968Z,0.00
2022-10-07T03:45:14.957Z,0.00
2022-10-07T03:46:14.977Z,0.00
2022-10-07T03:47:14.934Z,0.00
2022-10-07T03:48:14.944Z,0.00
2022-10-07T03:49:14.914Z,0.00
2022-10-07T03:50:14.904Z,0.00
2022-10-07T03:51:14.897Z,0.00
2022-10-07T03:52:14.906Z,0.00
2022-10-07T03:53:14.867Z,0.00
2022-10-07T03:54:14.865Z,0.00
2022-10-07T03:55:14.845Z,0.00
2022-10-07T03:56:14.837Z,0.00
2022-10-07T03:57:14.826Z,0.00
2022-10-07T03:58:14.836Z,0.00
2022-10-07T03:59:14.804Z,0.00
2022-10-07T04:00:14.795Z,0.00
2022-10-07T04:01:14.777Z,0.00
2022-10-07T04:02:14.794Z,0.00
2022-10-07T04:03:14.834Z,0.00
2022-10-07T04:04:14.774Z,0.00
2022-10-07T04:05:14.735Z,0.00
2022-10-07T04:06:14.727Z,0.00
2022-10-07T04:07:14.715Z,0.00
2022-10-07T04:08:14.706Z,0.00
2022-10-07T04:09:14.719Z,0.00
2022-10-07T04:10:14.687Z,0.00
2022-10-07T04:11:14.668Z,0.00
2022-10-07T04:12:14.666Z,0.00
2022-10-07T04:13:14.645Z,0.00
2022-10-07T04:14:14.656Z,0.00
2022-10-07T04:15:14.625Z,0.00
2022-10-07T04:16:14.676Z,0.00
2022-10-07T04:17:14.604Z,0.00
2022-10-07T04:18:14.596Z,0.00
2022-10-07T04:19:14.607Z,0.00
2022-10-07T04:20:14.575Z,0.00
2022-10-07T04:21:14.555Z,0.00
2022-10-07T04:22:14.558Z,0.00
2022-10-07T04:23:14.536Z,0.00
2022-10-07T04:24:14.557Z,0.00
2022-10-07T04:25:14.515Z,0.00
2022-10-07T04:26:14.508Z,0.00
2022-10-07T04:27:33.875Z,0.00
2022-10-07T04:28:15.548Z,0.00
2022-10-07T04:29:14.496Z,0.00
2022-10-07T04:30:14.468Z,0.00
2022-10-07T04:31:14.506Z,0.00
2022-10-07T04:32:14.437Z,0.00
2022-10-07T04:33:14.426Z,0.00
2022-10-07T04:34:14.425Z,0.00
2022-10-07T04:35:14.426Z,0.00
2022-10-07T04:36:14.396Z,0.00
2022-10-07T04:37:14.385Z,0.00
2022-10-07T04:38:14.377Z,0.00
2022-10-07T04:39:14.358Z,0.00
2022-10-07T04:40:14.382Z,0.00
2022-10-07T04:41:14.336Z,0.00
2022-10-07T04:42:14.327Z,0.00
2022-10-07T04:43:14.317Z,0.00
2022-10-07T04:44:14.308Z,0.00
2022-10-07T04:45:14.297Z,0.00
2022-10-07T04:46:14.474Z,0.00
2022-10-07T04:47:14.315Z,0.00
2022-10-07T04:48:14.259Z,0.00
2022-10-07T04:49:14.248Z,0.00
2022-10-07T04:50:14.269Z,0.00
2022-10-07T04:51:14.227Z,0.00
2022-10-07T04:52:14.225Z,0.00
2022-10-07T04:53:14.221Z,0.00
2022-10-07T04:54:14.198Z,0.00
2022-10-07T04:55:14.187Z,0.00
2022-10-07T04:56:14.199Z,0.00
2022-10-07T04:57:21.974Z,0.00
2022-10-07T04:58:14.153Z,0.00
2022-10-07T04:59:14.141Z,0.00
2022-10-07T05:00:14.161Z,0.00
2022-10-07T05:01:14.178Z,0.00
2022-10-07T05:02:14.231Z,0.00
2022-10-07T05:03:14.093Z,0.00
2022-10-07T05:04:14.092Z,0.00
2022-10-07T05:05:14.076Z,0.00
2022-10-07T05:06:14.083Z,0.00
2022-10-07T05:07:14.054Z,0.00
2022-10-07T05:08:14.043Z,0.00
2022-10-07T05:09:14.033Z,4.00
2022-10-07T05:10:14.022Z,4.00
2022-10-07T05:11:14.031Z,0.00
2022-10-07T05:12:14.002Z,4.00
2022-10-07T05:13:13.983Z,0.00
2022-10-07T05:14:13.984Z,4.00
2022-10-07T05:15:13.964Z,4.00
2022-10-07T05:16:14.035Z,4.00
2022-10-07T05:17:13.947Z,8.00
2022-10-07T05:18:13.932Z,8.00
2022-10-07T05:19:13.920Z,12.00
2022-10-07T05:20:13.910Z,16.00
2022-10-07T05:21:13.921Z,16.00
2022-10-07T05:22:13.897Z,20.00
2022-10-07T05:23:13.880Z,24.00
2022-10-07T05:24:13.877Z,28.00
2022-10-07T05:25:13.857Z,32.00
2022-10-07T05:26:13.862Z,36.00
2022-10-07T05:27:13.852Z,44.00
2022-10-07T05:28:13.878Z,48.00
2022-10-07T05:29:13.803Z,60.00
2022-10-07T05:30:13.803Z,68.00
2022-10-07T05:31:13.910Z,76.00
2022-10-07T05:32:13.787Z,88.00
2022-10-07T05:33:13.764Z,100.00
2022-10-07T05:34:13.753Z,112.00
2022-10-07T05:35:13.742Z,128.00
2022-10-07T05:36:13.738Z,144.00
2022-10-07T05:37:13.853Z,156.00
2022-10-07T05:38:13.780Z,176.00
2022-10-07T05:39:13.795Z,196.00
2022-10-07T05:40:13.766Z,216.00
2022-10-07T05:41:13.751Z,232.00
2022-10-07T05:42:13.836Z,256.00
2022-10-07T05:43:14.010Z,276.00
2022-10-07T05:44:13.646Z,300.00
2022-10-07T05:45:13.632Z,328.00
2022-10-07T05:46:13.691Z,352.00
2022-10-07T05:47:13.635Z,376.00
2022-10-07T05:48:13.594Z,404.00
2022-10-07T05:49:13.595Z,432.00
2022-10-07T05:50:13.584Z,460.00
2022-10-07T05:51:13.565Z,492.00
2022-10-07T05:52:13.563Z,520.00
2022-10-07T05:53:13.574Z,552.00
2022-10-07T05:54:13.534Z,584.00
2022-10-07T05:55:13.522Z,616.00
2022-10-07T05:56:13.512Z,648.00
2022-10-07T05:57:13.495Z,676.00
2022-10-07T05:58:13.495Z,712.00
2022-10-07T05:59:13.526Z,740.00
2022-10-07T06:00:13.471Z,772.00
2022-10-07T06:01:14.264Z,804.00
2022-10-07T06:02:13.587Z,836.00
2022-10-07T06:03:13.489Z,864.00
2022-10-07T06:04:13.425Z,896.00
2022-10-07T06:05:13.436Z,924.00
2022-10-07T06:06:13.404Z,956.00
2022-10-07T06:07:15.890Z,984.00
2022-10-07T06:08:14.383Z,1012.00
2022-10-07T06:09:13.373Z,1044.00
2022-10-07T06:10:13.386Z,1068.00
2022-10-07T06:11:13.345Z,1096.00
2022-10-07T06:12:13.335Z,1124.00
2022-10-07T06:13:13.324Z,1148.00
2022-10-07T06:14:13.315Z,1172.00
2022-10-07T06:15:13.325Z,1200.00
2022-10-07T06:16:13.377Z,1228.00
2022-10-07T06:17:13.296Z,1260.00
2022-10-07T06:18:13.272Z,1288.00
2022-10-07T06:19:13.256Z,1316.00
2022-10-07T06:20:13.312Z,1344.00
2022-10-07T06:21:13.234Z,1372.00
2022-10-07T06:22:13.225Z,1396.00
2022-10-07T06:23:13.217Z,1416.00
2022-10-07T06:24:13.217Z,1440.00
2022-10-07T06:25:13.224Z,1464.00
2022-10-07T06:26:13.231Z,1488.00
2022-10-07T06:27:13.172Z,1512.00
2022-10-07T06:28:13.203Z,1532.00
2022-10-07T06:29:13.193Z,1552.00
2022-10-07T06:30:13.142Z,1572.00
2022-10-07T06:31:13.208Z,1588.00
2022-10-07T06:32:13.154Z,1612.00
2022-10-07T06:33:13.105Z,1628.00
2022-10-07T06:34:13.129Z,1652.00
2022-10-07T06:35:13.087Z,1664.00
2022-10-07T06:36:13.185Z,1680.00
2022-10-07T06:37:13.056Z,1688.00
2022-10-07T06:38:13.058Z,1696.00
2022-10-07T06:39:13.038Z,1716.00
2022-10-07T06:40:13.026Z,1748.00
2022-10-07T06:41:13.034Z,1760.00
2022-10-07T06:42:13.006Z,1780.00
2022-10-07T06:43:13.025Z,1796.00
2022-10-07T06:44:13.017Z,1812.00
2022-10-07T06:45:12.972Z,1820.00
2022-10-07T06:46:13.043Z,1824.00
2022-10-07T06:47:12.973Z,1848.00
2022-10-07T06:48:12.938Z,1884.00
2022-10-07T06:49:12.925Z,1912.00
2022-10-07T06:50:12.917Z,1936.00
2022-10-07T06:51:12.978Z,1944.00
2022-10-07T06:52:12.943Z,1952.00
2022-10-07T06:53:12.895Z,1964.00
2022-10-07T06:54:12.876Z,1976.00
2022-10-07T06:55:12.856Z,1992.00
2022-10-07T06:56:12.865Z,2000.00
2022-10-07T06:57:40.421Z,2004.00
2022-10-07T06:58:13.888Z,2008.00
2022-10-07T06:59:12.806Z,2004.00
2022-10-07T07:00:12.805Z,2008.00
2022-10-07T07:01:12.945Z,2028.00
2022-10-07T07:02:12.831Z,2032.00
2022-10-07T07:03:12.794Z,2056.00
2022-10-07T07:04:12.758Z,2076.00
2022-10-07T07:05:12.746Z,2096.00
2022-10-07T07:06:12.736Z,2108.00
2022-10-07T07:07:12.725Z,2120.00
2022-10-07T07:08:12.738Z,2128.00
2022-10-07T07:09:12.798Z,2108.00
2022-10-07T07:10:12.695Z,2120.00
2022-10-07T07:11:12.686Z,2148.00
2022-10-07T07:12:12.667Z,2180.00
2022-10-07T07:13:12.679Z,2200.00
2022-10-07T07:14:12.650Z,2216.00
2022-10-07T07:15:12.636Z,2228.00
2022-10-07T07:16:12.693Z,2240.00
2022-10-07T07:17:12.662Z,2252.00
2022-10-07T07:18:12.630Z,2268.00
2022-10-07T07:19:12.642Z,2276.00
2022-10-07T07:20:12.768Z,2288.00
2022-10-07T07:21:12.577Z,2300.00
2022-10-07T07:22:12.558Z,2308.00
2022-10-07T07:23:12.570Z,2316.00
2022-10-07T07:24:12.538Z,2332.00
2022-10-07T07:25:12.527Z,2344.00
2022-10-07T07:26:12.537Z,2356.00
2022-10-07T07:27:12.508Z,2368.00
2022-10-07T07:28:12.553Z,2376.00
2022-10-07T07:29:12.489Z,2388.00
2022-10-07T07:30:12.542Z,2400.00
2022-10-07T07:31:12.510Z,2412.00
2022-10-07T07:32:12.449Z,2420.00
2022-10-07T07:33:12.466Z,2424.00
2022-10-07T07:34:12.428Z,2436.00
2022-10-07T07:35:12.419Z,2444.00
2022-10-07T07:36:12.407Z,2464.00
2022-10-07T07:37:12.399Z,2476.00
2022-10-07T07:38:12.408Z,2492.00
2022-10-07T07:39:12.379Z,2512.00
2022-10-07T07:40:12.363Z,2516.00
2022-10-07T07:41:12.358Z,2520.00
2022-10-07T07:42:12.340Z,2528.00
2022-10-07T07:43:12.359Z,2524.00
2022-10-07T07:44:12.320Z,2524.00
2022-10-07T07:45:12.307Z,2548.00
2022-10-07T07:46:12.346Z,2556.00
2022-10-07T07:47:12.294Z,2564.00
2022-10-07T07:48:12.321Z,2576.00
2022-10-07T07:49:12.270Z,2596.00
2022-10-07T07:50:12.249Z,2616.00
2022-10-07T07:51:12.249Z,2620.00
2022-10-07T07:52:12.238Z,2632.00
2022-10-07T07:53:12.220Z,2640.00
2022-10-07T07:54:12.241Z,2660.00
2022-10-07T07:55:12.201Z,2672.00
2022-10-07T07:56:12.189Z,2692.00
2022-10-07T07:57:12.180Z,2708.00
2022-10-07T07:58:12.189Z,2716.00
2022-10-07T07:59:12.161Z,2676.00
2022-10-07T08:00:12.170Z,2724.00
2022-10-07T08:01:12.179Z,2716.00
2022-10-07T08:02:12.225Z,2708.00
2022-10-07T08:03:12.113Z,2692.00
2022-10-07T08:04:12.100Z,2688.00
2022-10-07T08:05:12.090Z,2680.00
2022-10-07T08:06:12.100Z,2688.00
2022-10-07T08:07:12.077Z,2692.00
2022-10-07T08:08:12.079Z,2732.00
2022-10-07T08:09:12.042Z,2752.00
2022-10-07T08:10:12.040Z,2772.00
2022-10-07T08:11:12.021Z,2764.00
2022-10-07T08:12:12.003Z,2764.00
2022-10-07T08:13:12.001Z,2784.00
2022-10-07T08:14:12.011Z,2808.00
2022-10-07T08:15:11.992Z,2836.00
2022-10-07T08:16:11.999Z,2852.00
2022-10-07T08:17:11.951Z,2872.00
2022-10-07T08:18:11.943Z,2868.00
2022-10-07T08:19:11.931Z,2860.00
2022-10-07T08:20:11.941Z,2912.00
2022-10-07T08:21:12.055Z,2932.00
2022-10-07T08:22:11.891Z,2912.00
2022-10-07T08:23:11.911Z,2904.00
2022-10-07T08:24:11.872Z,2916.00
2022-10-07T08:25:11.863Z,2936.00
2022-10-07T08:26:11.852Z,2944.00
2022-10-07T08:27:11.843Z,2964.00
2022-10-07T08:28:11.944Z,3008.00
2022-10-07T08:29:11.846Z,3048.00
2022-10-07T08:30:11.875Z,3072.00
2022-10-07T08:31:11.863Z,3084.00
2022-10-07T08:32:11.783Z,3100.00
2022-10-07T08:33:11.775Z,3120.00
2022-10-07T08:34:11.762Z,3112.00
2022-10-07T08:35:11.780Z,3088.00
2022-10-07T08:36:11.742Z,3164.00
2022-10-07T08:37:11.731Z,3160.00
2022-10-07T08:38:14.539Z,3116.00
2022-10-07T08:39:11.705Z,3116.00
2022-10-07T08:40:11.787Z,3200.00
2022-10-07T08:41:11.694Z,3216.00
2022-10-07T08:42:11.666Z,3252.00
2022-10-07T08:43:11.665Z,3316.00
2022-10-07T08:44:16.405Z,3392.00
2022-10-07T08:45:12.667Z,3436.00
2022-10-07T08:46:11.654Z,3456.00
2022-10-07T08:47:11.614Z,3432.00
2022-10-07T08:48:11.604Z,3416.00
2022-10-07T08:49:11.609Z,3444.00
2022-10-07T08:50:16.518Z,3448.00
2022-10-07T08:51:12.571Z,3456.00
2022-10-07T08:52:11.563Z,3364.00
2022-10-07T08:53:11.549Z,3360.00
2022-10-07T08:54:11.537Z,3436.00
2022-10-07T08:55:11.555Z,3492.00
2022-10-07T08:56:11.515Z,3508.00
2022-10-07T08:57:11.506Z,3544.00
2022-10-07T08:58:11.494Z,3572.00
2022-10-07T08:59:11.489Z,3556.00
2022-10-07T09:00:11.470Z,3492.00
2022-10-07T09:01:11.521Z,3516.00
2022-10-07T09:02:11.454Z,3532.00
2022-10-07T09:03:11.446Z,3536.00
2022-10-07T09:04:11.426Z,3564.00
2022-10-07T09:05:11.438Z,3572.00
2022-10-07T09:06:11.426Z,3612.00
2022-10-07T09:07:11.407Z,3668.00
2022-10-07T09:08:11.396Z,3688.00
2022-10-07T09:09:11.376Z,3748.00
2022-10-07T09:10:11.362Z,3844.00
2022-10-07T09:11:11.377Z,3936.00
2022-10-07T09:12:11.337Z,3956.00
2022-10-07T09:13:11.327Z,3844.00
2022-10-07T09:14:11.317Z,3876.00
2022-10-07T09:15:11.308Z,4068.00
2022-10-07T09:16:11.385Z,4152.00
2022-10-07T09:17:11.288Z,4204.00
2022-10-07T09:18:11.269Z,4328.00
2022-10-07T09:19:11.258Z,4456.00
2022-10-07T09:20:11.252Z,4456.00
2022-10-07T09:21:11.240Z,4444.00
2022-10-07T09:22:11.249Z,4584.00
2022-10-07T09:23:11.222Z,4844.00
2022-10-07T09:24:11.211Z,4980.00
2022-10-07T09:25:11.503Z,5092.00
2022-10-07T09:26:11.231Z,5168.00
2022-10-07T09:27:11.174Z,4836.00
2022-10-07T09:28:11.215Z,5408.00
2022-10-07T09:29:11.152Z,5576.00
2022-10-07T09:30:11.140Z,5752.00
2022-10-07T09:31:11.225Z,5924.00
2022-10-07T09:32:11.126Z,6040.00
2022-10-07T09:33:11.110Z,6192.00
2022-10-07T09:34:11.091Z,6304.00
2022-10-07T09:35:11.084Z,6364.00
2022-10-07T09:36:11.093Z,6680.00
2022-10-07T09:37:11.090Z,6756.00
2022-10-07T09:38:11.052Z,6908.00
2022-10-07T09:39:11.042Z,6884.00
2022-10-07T09:40:11.033Z,7060.00
2022-10-07T09:41:11.020Z,7352.00
2022-10-07T09:42:11.034Z,7248.00
2022-10-07T09:43:11.002Z,7228.00
2022-10-07T09:44:10.982Z,7224.00
2022-10-07T09:45:10.973Z,7288.00
2022-10-07T09:46:11.041Z,7380.00
2022-10-07T09:47:10.953Z,7252.00
2022-10-07T09:48:10.955Z,7644.00
2022-10-07T09:49:10.925Z,7700.00
2022-10-07T09:50:10.952Z,7516.00
2022-10-07T09:51:10.906Z,7984.00
2022-10-07T09:52:10.895Z,8244.00
2022-10-07T09:53:10.915Z,8192.00
2022-10-07T09:54:10.866Z,8544.00
2022-10-07T09:55:10.863Z,9764.00
2022-10-07T09:56:10.847Z,13468.00
2022-10-07T09:57:12.068Z,19296.00
2022-10-07T09:58:10.826Z,19936.00
2022-10-07T09:59:10.837Z,22880.00
2022-10-07T10:00:10.809Z,24160.00
2022-10-07T10:01:10.796Z,25088.00
2022-10-07T10:02:10.833Z,23552.00
2022-10-07T10:03:10.851Z,24832.00
2022-10-07T10:04:10.757Z,23904.00
2022-10-07T10:05:10.769Z,23808.00
2022-10-07T10:06:10.740Z,24768.00
2022-10-07T10:07:10.729Z,25536.00
2022-10-07T10:08:10.740Z,26432.00
2022-10-07T10:09:10.708Z,24224.00
2022-10-07T10:10:10.718Z,25792.00
2022-10-07T10:11:10.690Z,27968.00
2022-10-07T10:12:10.670Z,26784.00
2022-10-07T10:13:10.659Z,25056.00
2022-10-07T10:14:10.647Z,24480.00
2022-10-07T10:15:10.660Z,26144.00
2022-10-07T10:16:10.769Z,26560.00
2022-10-07T10:17:10.620Z,27680.00
2022-10-07T10:18:10.644Z,28320.00
2022-10-07T10:19:10.600Z,28992.00
2022-10-07T10:20:10.601Z,29472.00
2022-10-07T10:21:10.610Z,29984.00
2022-10-07T10:22:10.584Z,27392.00
2022-10-07T10:23:10.552Z,28736.00
2022-10-07T10:24:10.541Z,29856.00
2022-10-07T10:25:10.530Z,28352.00
2022-10-07T10:26:10.512Z,21824.00
2022-10-07T10:27:10.515Z,29184.00
2022-10-07T10:28:10.569Z,27584.00
2022-10-07T10:29:10.484Z,28448.00
2022-10-07T10:30:10.465Z,27936.00
2022-10-07T10:31:10.527Z,20544.00
2022-10-07T10:32:10.474Z,28992.00
2022-10-07T10:33:10.462Z,28800.00
2022-10-07T10:34:10.434Z,25920.00
2022-10-07T10:35:10.422Z,28000.00
2022-10-07T10:36:10.405Z,28192.00
2022-10-07T10:37:14.453Z,27296.00
2022-10-07T10:38:10.417Z,30272.00
2022-10-07T10:39:10.375Z,29088.00
2022-10-07T10:40:10.364Z,23488.00
2022-10-07T10:41:10.530Z,19968.00
2022-10-07T10:42:10.376Z,19104.00
2022-10-07T10:43:10.328Z,25312.00
2022-10-07T10:44:10.337Z,26272.00
2022-10-07T10:45:10.307Z,29120.00
2022-10-07T10:46:10.357Z,28288.00
2022-10-07T10:47:10.288Z,26784.00
2022-10-07T10:48:10.270Z,23616.00
2022-10-07T10:49:10.288Z,23840.00
2022-10-07T10:50:10.249Z,22336.00
2022-10-07T10:51:10.244Z,24352.00
2022-10-07T10:52:13.459Z,29280.00
2022-10-07T10:53:10.221Z,27904.00
2022-10-07T10:54:10.231Z,28320.00
2022-10-07T10:55:10.200Z,28000.00
2022-10-07T10:56:10.184Z,26912.00
2022-10-07T10:57:10.173Z,25696.00
2022-10-07T10:58:17.951Z,25888.00
2022-10-07T10:59:10.175Z,28544.00
2022-10-07T11:00:10.148Z,30752.00
2022-10-07T11:01:10.131Z,31872.00
2022-10-07T11:02:10.158Z,30816.00
2022-10-07T11:03:10.183Z,31424.00
2022-10-07T11:04:10.112Z,31008.00
2022-10-07T11:05:10.106Z,24128.00
2022-10-07T11:06:10.072Z,29120.00
2022-10-07T11:07:10.062Z,32288.00
2022-10-07T11:08:10.052Z,32128.00
2022-10-07T11:09:10.044Z,13272.00
2022-10-07T11:10:10.055Z,22560.00
2022-10-07T11:11:10.035Z,22976.00
2022-10-07T11:12:10.008Z,28384.00
2022-10-07T11:13:09.997Z,27488.00
2022-10-07T11:14:09.986Z,27488.00
2022-10-07T11:15:09.977Z,26112.00
2022-10-07T11:16:10.034Z,27328.00
2022-10-07T11:17:09.956Z,25472.00
2022-10-07T11:18:09.945Z,32768.00
2022-10-07T11:19:09.937Z,33568.00
2022-10-07T11:20:09.937Z,12232.00
2022-10-07T11:21:09.907Z,12692.00
2022-10-07T11:22:09.899Z,33856.00
2022-10-07T11:23:09.890Z,9996.00
2022-10-07T11:24:09.869Z,32448.00
2022-10-07T11:25:09.891Z,25120.00
2022-10-07T11:26:09.850Z,30624.00
2022-10-07T11:27:09.840Z,10096.00
2022-10-07T11:28:09.888Z,29024.00
2022-10-07T11:29:09.819Z,27808.00
2022-10-07T11:30:09.831Z,30528.00
2022-10-07T11:31:09.811Z,22016.00
2022-10-07T11:32:09.790Z,30720.00
2022-10-07T11:33:09.772Z,31872.00
2022-10-07T11:34:09.782Z,25472.00
2022-10-07T11:35:09.751Z,32320.00
2022-10-07T11:36:09.743Z,10660.00
2022-10-07T11:37:09.731Z,30304.00
2022-10-07T11:38:09.742Z,31968.00
2022-10-07T11:39:09.730Z,35904.00
2022-10-07T11:40:09.701Z,36512.00
2022-10-07T11:41:09.685Z,33696.00
2022-10-07T11:42:09.675Z,32544.00
2022-10-07T11:43:09.683Z,29088.00
2022-10-07T11:44:09.654Z,27264.00
2022-10-07T11:45:09.675Z,25568.00
2022-10-07T11:46:11.665Z,28224.00
2022-10-07T11:47:09.625Z,30304.00
2022-10-07T11:48:09.628Z,33312.00
2022-10-07T11:49:09.595Z,33664.00
2022-10-07T11:50:09.585Z,34592.00
2022-10-07T11:51:09.595Z,33824.00
2022-10-07T11:52:09.565Z,32704.00
2022-10-07T11:53:09.557Z,32896.00
2022-10-07T11:54:09.549Z,27872.00
2022-10-07T11:55:09.546Z,31424.00
2022-10-07T11:56:09.518Z,29984.00
2022-10-07T11:57:09.509Z,27840.00
2022-10-07T11:58:09.504Z,29504.00
2022-10-07T11:59:09.491Z,32448.00
2022-10-07T12:00:09.500Z,30080.00
2022-10-07T12:01:09.469Z,34112.00
2022-10-07T12:02:09.499Z,38208.00
2022-10-07T12:03:09.460Z,36512.00
2022-10-07T12:04:09.438Z,37792.00
2022-10-07T12:05:09.457Z,34976.00
2022-10-07T12:06:09.414Z,31872.00
2022-10-07T12:07:09.401Z,33184.00
2022-10-07T12:08:09.401Z,32352.00
2022-10-07T12:09:09.383Z,32736.00
2022-10-07T12:10:09.394Z,32960.00
2022-10-07T12:11:09.361Z,31680.00
2022-10-07T12:12:09.352Z,30432.00
2022-10-07T12:13:09.333Z,32672.00
2022-10-07T12:14:09.332Z,33248.00
2022-10-07T12:15:09.333Z,34688.00
2022-10-07T12:16:09.320Z,32608.00
2022-10-07T12:17:09.294Z,36032.00
2022-10-07T12:18:09.295Z,34944.00
2022-10-07T12:19:09.873Z,34944.00
2022-10-07T12:20:09.258Z,26016.00
2022-10-07T12:21:09.267Z,29696.00
2022-10-07T12:22:09.244Z,32960.00
2022-10-07T12:23:09.227Z,33440.00
2022-10-07T12:24:09.217Z,32288.00
2022-10-07T12:25:11.288Z,27712.00
2022-10-07T12:26:09.219Z,31104.00
2022-10-07T12:27:09.258Z,26592.00
2022-10-07T12:28:09.256Z,29504.00
2022-10-07T12:29:09.160Z,27520.00
2022-10-07T12:30:09.150Z,29344.00
2022-10-07T12:31:09.206Z,30208.00